createdAt,value
2019-04-16T00:02:27.214Z,99.90
2019-04-16T00:05:11.823Z,99.90
2019-04-16T00:08:19.416Z,99.90
2019-04-16T00:10:56.815Z,99.90
2019-04-16T00:13:55.012Z,99.90
2019-04-16T00:16:25.586Z,99.90
2019-04-16T00:18:58.127Z,99.90
2019-04-16T00:21:47.662Z,99.90
2019-04-16T00:24:25.430Z,99.90
2019-04-16T00:26:59.323Z,99.90
2019-04-16T00:29:32.981Z,99.90
2019-04-16T00:32:09.628Z,99.90
2019-04-16T00:34:44.528Z,99.90
2019-04-16T00:37:11.981Z,99.90
2019-04-16T00:39:42.220Z,99.90
2019-04-16T00:42:13.176Z,99.90
2019-04-16T00:44:43.509Z,99.90
2019-04-16T00:47:13.853Z,99.90
2019-04-16T00:49:44.533Z,99.90
2019-04-16T00:52:15.432Z,99.90
2019-04-16T00:54:46.076Z,99.90
2019-04-16T00:57:18.029Z,99.90
2019-04-16T00:59:49.041Z,99.90
2019-04-16T01:02:19.347Z,99.90
2019-04-16T01:04:49.892Z,99.90
2019-04-16T01:07:20.540Z,99.90
2019-04-16T01:09:50.849Z,99.90
2019-04-16T01:12:21.106Z,99.90
2019-04-16T01:14:51.428Z,99.90
2019-04-16T01:17:21.738Z,99.90
2019-04-16T01:19:52.022Z,99.90
2019-04-16T01:22:22.287Z,99.90
2019-04-16T01:24:52.932Z,99.90
2019-04-16T01:27:31.749Z,99.90
2019-04-16T01:30:04.881Z,99.90
2019-04-16T01:32:48.887Z,99.90
2019-04-16T01:35:40.949Z,99.90
2019-04-16T01:38:34.982Z,99.90
2019-04-16T01:41:08.822Z,99.90
2019-04-16T01:43:39.113Z,99.90
2019-04-16T01:46:09.481Z,99.90
2019-04-16T01:48:39.900Z,99.90
2019-04-16T01:51:12.616Z,99.90
2019-04-16T01:53:42.823Z,99.90
2019-04-16T01:56:13.085Z,99.90
2019-04-16T01:58:43.354Z,99.90
2019-04-16T02:01:13.956Z,99.90
2019-04-16T02:03:48.603Z,99.90
2019-04-16T02:06:16.068Z,99.90
2019-04-16T02:08:46.325Z,99.90
2019-04-16T02:11:17.019Z,99.90
2019-04-16T02:13:47.317Z,99.90
2019-04-16T02:16:18.237Z,99.90
2019-04-16T02:18:49.076Z,99.90
2019-04-16T02:21:19.336Z,99.90
2019-04-16T02:23:49.523Z,99.90
2019-04-16T02:26:20.498Z,99.90
2019-04-16T02:28:52.083Z,99.90
2019-04-16T02:31:22.339Z,99.90
2019-04-16T02:33:52.637Z,99.90
2019-04-16T02:36:22.861Z,99.90
2019-04-16T02:38:53.663Z,99.90
2019-04-16T02:41:24.730Z,99.90
2019-04-16T02:43:55.356Z,99.90
2019-04-16T02:46:30.539Z,99.90
2019-04-16T02:48:57.710Z,99.90
2019-04-16T02:51:50.319Z,99.90
2019-04-16T02:54:39.499Z,99.90
2019-04-16T02:57:26.552Z,99.90
2019-04-16T02:59:56.324Z,99.90
2019-04-16T03:02:53.650Z,99.90
2019-04-16T03:05:33.753Z,99.90
2019-04-16T03:08:05.126Z,99.90
2019-04-16T03:10:36.068Z,99.90
2019-04-16T03:13:06.728Z,99.90
2019-04-16T03:16:06.344Z,99.90
2019-04-16T03:18:46.959Z,99.90
2019-04-16T03:21:16.188Z,99.90
2019-04-16T03:23:46.842Z,99.90
2019-04-16T03:26:18.205Z,99.90
2019-04-16T03:28:48.555Z,99.90
2019-04-16T03:31:22.963Z,99.90
2019-04-16T03:33:51.124Z,99.90
2019-04-16T03:36:21.408Z,99.90
2019-04-16T03:38:51.682Z,99.90
2019-04-16T03:41:25.004Z,99.90
2019-04-16T03:43:53.821Z,99.90
2019-04-16T03:46:24.106Z,99.90
2019-04-16T03:48:56.191Z,99.90
2019-04-16T03:51:26.296Z,99.90
2019-04-16T03:53:56.512Z,99.90
2019-04-16T03:56:27.532Z,99.90
2019-04-16T03:58:59.277Z,99.90
2019-04-16T04:01:29.521Z,99.90
2019-04-16T04:04:00.145Z,99.90
2019-04-16T04:06:30.415Z,99.90
2019-04-16T04:09:00.931Z,99.90
2019-04-16T04:11:31.142Z,99.90
2019-04-16T04:14:01.330Z,99.90
2019-04-16T04:16:33.422Z,99.90
2019-04-16T04:19:03.482Z,99.90
2019-04-16T04:21:33.707Z,99.90
2019-04-16T04:24:03.928Z,99.90
2019-04-16T04:26:34.140Z,99.90
2019-04-16T04:29:06.261Z,99.90
2019-04-16T04:31:36.659Z,99.90
2019-04-16T04:34:09.843Z,99.90
2019-04-16T04:36:38.753Z,99.90
2019-04-16T04:39:12.860Z,99.90
2019-04-16T04:41:40.896Z,99.90
2019-04-16T04:44:11.130Z,99.90
2019-04-16T04:46:43.253Z,99.90
2019-04-16T04:49:13.584Z,99.90
2019-04-16T04:51:43.905Z,99.90
2019-04-16T04:54:14.453Z,99.90
2019-04-16T04:56:44.740Z,99.90
2019-04-16T04:59:15.398Z,99.90
2019-04-16T05:01:45.980Z,99.90
2019-04-16T05:04:41.876Z,99.90
2019-04-16T05:07:12.525Z,99.90
2019-04-16T05:09:42.789Z,99.90
2019-04-16T05:12:13.031Z,99.90
2019-04-16T05:14:58.455Z,99.90
2019-04-16T05:17:29.506Z,99.90
2019-04-16T05:19:59.754Z,99.90
2019-04-16T05:22:32.823Z,99.90
2019-04-16T05:25:02.565Z,99.90
2019-04-16T05:27:32.880Z,99.90
2019-04-16T05:30:03.556Z,99.90
2019-04-16T05:32:34.277Z,99.90
2019-04-16T05:35:09.244Z,99.90
2019-04-16T05:37:37.645Z,99.90
2019-04-16T05:40:09.440Z,99.90
2019-04-16T05:42:39.950Z,99.90
2019-04-16T05:45:11.509Z,99.90
2019-04-16T05:47:41.799Z,99.90
2019-04-16T05:50:12.445Z,99.90
2019-04-16T05:52:42.739Z,99.90
2019-04-16T05:55:26.915Z,99.90
2019-04-16T05:57:58.189Z,99.90
2019-04-16T06:00:50.866Z,99.90
2019-04-16T06:03:22.386Z,99.90
2019-04-16T06:05:52.801Z,99.90
2019-04-16T06:08:23.435Z,99.90
2019-04-16T06:10:57.242Z,99.90
2019-04-16T06:13:47.963Z,99.90
2019-04-16T06:16:25.163Z,99.90
2019-04-16T06:19:19.438Z,99.90
2019-04-16T06:22:07.543Z,99.90
2019-04-16T06:24:54.506Z,99.90
2019-04-16T06:27:30.278Z,99.90
2019-04-16T06:30:32.751Z,99.90
2019-04-16T06:33:03.999Z,99.90
2019-04-16T06:35:52.042Z,99.90
2019-04-16T06:38:29.785Z,99.90
2019-04-16T06:41:21.773Z,99.90
2019-04-16T06:43:58.377Z,99.90
2019-04-16T06:46:44.231Z,97.10
2019-04-16T06:49:34.632Z,95.10
2019-04-16T06:52:26.762Z,94.20
2019-04-16T06:55:18.896Z,93.50
2019-04-16T06:58:06.768Z,89.10
2019-04-16T07:00:44.329Z,88.50
2019-04-16T07:03:32.529Z,86.60
2019-04-16T07:06:35.888Z,84.00
2019-04-16T07:09:25.768Z,84.10
2019-04-16T07:11:57.105Z,85.60
2019-04-16T07:14:27.398Z,88.10
2019-04-16T07:17:00.166Z,89.00
2019-04-16T07:19:29.884Z,84.90
2019-04-16T07:22:00.095Z,81.50
2019-04-16T07:24:31.628Z,82.80
2019-04-16T07:27:02.400Z,80.90
2019-04-16T07:29:51.675Z,80.80
2019-04-16T07:32:39.976Z,81.30
2019-04-16T07:35:47.598Z,79.40
2019-04-16T07:38:26.020Z,81.30
2019-04-16T07:41:18.198Z,76.00
2019-04-16T07:44:13.136Z,75.30
2019-04-16T07:47:05.422Z,76.00
2019-04-16T07:49:42.132Z,76.50
2019-04-16T07:52:31.624Z,74.20
2019-04-16T07:55:36.188Z,70.40
2019-04-16T07:58:06.749Z,69.00
2019-04-16T08:00:40.185Z,67.50
2019-04-16T08:03:09.669Z,68.80
2019-04-16T08:05:41.227Z,68.30
2019-04-16T08:08:12.324Z,68.80
2019-04-16T08:10:42.592Z,67.40
2019-04-16T08:13:20.853Z,68.70
2019-04-16T08:15:51.135Z,66.10
2019-04-16T08:18:21.461Z,68.30
2019-04-16T08:21:01.103Z,66.90
2019-04-16T08:23:30.885Z,66.50
2019-04-16T08:26:04.329Z,66.60
2019-04-16T08:28:34.087Z,64.40
2019-04-16T08:31:07.737Z,65.10
2019-04-16T08:33:36.646Z,65.60
2019-04-16T08:36:06.915Z,63.70
2019-04-16T08:38:37.535Z,66.30
2019-04-16T08:41:07.829Z,63.70
2019-04-16T08:43:38.406Z,64.20
2019-04-16T08:46:11.234Z,60.30
2019-04-16T08:48:41.130Z,62.40
2019-04-16T08:51:11.678Z,62.80
2019-04-16T08:53:43.766Z,62.20
2019-04-16T08:56:13.744Z,60.30
2019-04-16T08:58:43.982Z,63.00
2019-04-16T09:01:18.824Z,61.60
2019-04-16T09:03:49.375Z,59.40
2019-04-16T09:06:19.644Z,58.80
2019-04-16T09:09:13.501Z,60.00
2019-04-16T09:11:44.695Z,61.40
2019-04-16T09:14:16.764Z,59.80
2019-04-16T09:16:56.002Z,59.90
2019-04-16T09:19:26.355Z,59.60
2019-04-16T09:21:56.570Z,61.60
2019-04-16T09:24:31.151Z,57.20
2019-04-16T09:27:33.878Z,56.90
2019-04-16T09:30:19.236Z,58.50
2019-04-16T09:33:00.354Z,56.80
2019-04-16T09:35:40.740Z,57.10
2019-04-16T09:38:45.182Z,56.00
2019-04-16T09:41:33.835Z,53.90
2019-04-16T09:44:05.128Z,53.80
2019-04-16T09:46:52.074Z,56.90
2019-04-16T09:49:07.258Z,54.10
2019-04-16T09:51:37.791Z,52.70
2019-04-16T09:54:12.247Z,52.30
2019-04-16T09:56:39.968Z,54.10
2019-04-16T09:59:26.566Z,51.70
2019-04-16T10:02:04.664Z,53.70
2019-04-16T10:04:34.920Z,51.70
2019-04-16T10:07:05.203Z,48.80
2019-04-16T10:09:35.460Z,49.40
2019-04-16T10:12:07.803Z,53.40
2019-04-16T10:14:38.023Z,49.20
2019-04-16T10:17:08.343Z,49.70
2019-04-16T10:19:43.035Z,49.20
2019-04-16T10:22:10.475Z,49.10
2019-04-16T10:25:06.683Z,46.20
2019-04-16T10:28:01.871Z,48.50
2019-04-16T10:30:50.029Z,48.50
2019-04-16T10:33:20.627Z,45.10
2019-04-16T10:35:50.661Z,47.60
2019-04-16T10:38:38.179Z,47.80
2019-04-16T10:41:14.712Z,47.00
2019-04-16T10:43:59.824Z,45.40
2019-04-16T10:46:45.372Z,48.60
2019-04-16T10:49:37.239Z,48.30
2019-04-16T10:52:32.292Z,45.50
2019-04-16T10:55:20.847Z,49.40
2019-04-16T10:58:08.349Z,46.90
2019-04-16T11:00:55.132Z,49.50
2019-04-16T11:03:43.584Z,49.10
2019-04-16T11:06:29.579Z,46.50
2019-04-16T11:08:59.223Z,46.00
2019-04-16T11:11:28.901Z,48.40
2019-04-16T11:14:00.376Z,47.00
2019-04-16T11:16:30.240Z,49.50
2019-04-16T11:18:59.941Z,47.40
2019-04-16T11:21:29.509Z,44.00
2019-04-16T11:23:59.054Z,43.30
2019-04-16T11:26:28.850Z,46.10
2019-04-16T11:28:58.542Z,46.50
2019-04-16T11:31:28.546Z,42.60
2019-04-16T11:33:58.262Z,46.40
2019-04-16T11:36:30.966Z,46.80
2019-04-16T11:38:59.577Z,46.40
2019-04-16T11:41:29.382Z,45.30
2019-04-16T11:44:13.490Z,42.40
2019-04-16T11:46:30.977Z,46.60
2019-04-16T11:49:00.667Z,47.30
2019-04-16T11:51:30.595Z,44.00
2019-04-16T11:54:00.256Z,42.80
2019-04-16T11:56:30.338Z,43.60
2019-04-16T11:59:00.066Z,42.00
2019-04-16T12:01:57.873Z,41.40
2019-04-16T12:04:49.186Z,43.00
2019-04-16T12:07:46.904Z,46.20
2019-04-16T12:10:32.793Z,44.60
2019-04-16T12:13:27.984Z,42.10
2019-04-16T12:16:29.156Z,41.80
2019-04-16T12:19:16.206Z,42.40
2019-04-16T12:22:11.112Z,42.80
2019-04-16T12:25:05.504Z,42.00
2019-04-16T12:28:12.367Z,40.50
2019-04-16T12:31:06.053Z,41.60
2019-04-16T12:33:53.874Z,42.90
2019-04-16T12:36:41.326Z,42.70
2019-04-16T12:39:48.783Z,37.60
2019-04-16T12:42:41.211Z,40.50
2019-04-16T12:45:21.530Z,40.00
2019-04-16T12:48:01.725Z,40.50
2019-04-16T12:50:39.304Z,41.20
2019-04-16T12:53:27.860Z,41.10
2019-04-16T12:56:12.025Z,40.00
2019-04-16T12:59:01.107Z,40.50
2019-04-16T13:01:51.905Z,40.80
2019-04-16T13:04:45.733Z,40.50
2019-04-16T13:07:20.674Z,42.80
2019-04-16T13:10:12.279Z,42.50
2019-04-16T13:12:59.626Z,39.70
2019-04-16T13:15:57.023Z,40.20
2019-04-16T13:18:48.829Z,40.70
2019-04-16T13:21:27.697Z,40.70
2019-04-16T13:24:10.757Z,40.40
2019-04-16T13:26:50.277Z,40.60
2019-04-16T13:29:22.276Z,40.50
2019-04-16T13:31:52.200Z,40.10
2019-04-16T13:34:21.851Z,40.20
2019-04-16T13:36:52.171Z,42.80
2019-04-16T13:39:40.141Z,41.10
2019-04-16T13:42:17.020Z,38.80
2019-04-16T13:44:50.204Z,42.50
2019-04-16T13:47:20.190Z,41.10
2019-04-16T13:50:04.817Z,41.30
2019-04-16T13:52:34.995Z,42.20
2019-04-16T13:55:24.109Z,42.40
2019-04-16T13:58:21.833Z,42.80
2019-04-16T14:00:56.213Z,43.10
2019-04-16T14:03:25.881Z,42.60
2019-04-16T14:05:55.545Z,42.90
2019-04-16T14:08:25.463Z,41.90
2019-04-16T14:10:55.098Z,41.70
2019-04-16T14:13:24.641Z,42.60
2019-04-16T14:15:54.684Z,41.90
2019-04-16T14:18:24.578Z,43.80
2019-04-16T14:20:54.216Z,42.80
2019-04-16T14:23:23.803Z,42.80
2019-04-16T14:25:53.814Z,42.10
2019-04-16T14:28:23.496Z,43.70
2019-04-16T14:30:53.671Z,43.70
2019-04-16T14:33:34.224Z,42.90
2019-04-16T14:36:04.546Z,42.70
2019-04-16T14:38:39.978Z,42.90
2019-04-16T14:41:11.968Z,44.70
2019-04-16T14:43:43.668Z,46.00
2019-04-16T14:46:13.354Z,43.10
2019-04-16T14:48:46.425Z,45.00
2019-04-16T14:51:14.270Z,44.60
2019-04-16T14:53:59.419Z,45.20
2019-04-16T14:56:47.970Z,47.00
2019-04-16T14:59:42.728Z,46.00
2019-04-16T15:02:46.383Z,45.40
2019-04-16T15:05:44.677Z,46.50
2019-04-16T15:08:53.118Z,47.50
2019-04-16T15:11:40.792Z,46.10
2019-04-16T15:14:26.081Z,46.10
2019-04-16T15:17:02.245Z,45.60
2019-04-16T15:19:35.925Z,46.70
2019-04-16T15:22:37.038Z,46.50
2019-04-16T15:25:26.984Z,49.50
2019-04-16T15:28:21.978Z,48.40
2019-04-16T15:31:02.615Z,47.40
2019-04-16T15:33:39.744Z,50.50
2019-04-16T15:36:21.411Z,50.20
2019-04-16T15:39:12.860Z,49.20
2019-04-16T15:42:04.546Z,49.70
2019-04-16T15:44:57.385Z,51.10
2019-04-16T15:47:46.135Z,49.00
2019-04-16T15:50:35.088Z,50.70
2019-04-16T15:53:06.396Z,50.40
2019-04-16T15:55:55.318Z,51.50
2019-04-16T15:58:42.871Z,50.10
2019-04-16T16:01:24.881Z,52.00
2019-04-16T16:04:12.337Z,52.00
2019-04-16T16:06:53.178Z,54.80
2019-04-16T16:09:41.870Z,50.90
2019-04-16T16:12:13.578Z,51.70
2019-04-16T16:14:43.556Z,53.40
2019-04-16T16:17:13.236Z,51.80
2019-04-16T16:19:42.835Z,55.20
2019-04-16T16:22:13.096Z,50.80
2019-04-16T16:24:43.086Z,52.00
2019-04-16T16:27:12.890Z,52.50
2019-04-16T16:29:42.522Z,51.90
2019-04-16T16:32:12.248Z,53.50
2019-04-16T16:34:42.289Z,54.90
2019-04-16T16:37:11.914Z,55.70
2019-04-16T16:39:41.860Z,55.30
2019-04-16T16:42:11.360Z,55.80
2019-04-16T16:44:41.036Z,56.50
2019-04-16T16:47:20.076Z,57.20
2019-04-16T16:49:49.687Z,58.00
2019-04-16T16:52:39.018Z,59.00
2019-04-16T16:55:12.049Z,61.00
2019-04-16T16:57:47.675Z,58.90
2019-04-16T17:00:36.195Z,60.60
2019-04-16T17:03:16.985Z,62.00
2019-04-16T17:05:46.936Z,59.70
2019-04-16T17:08:16.685Z,60.60
2019-04-16T17:10:46.448Z,61.10
2019-04-16T17:13:20.811Z,59.80
2019-04-16T17:15:47.644Z,62.00
2019-04-16T17:18:17.292Z,64.00
2019-04-16T17:20:50.080Z,63.70
2019-04-16T17:23:18.409Z,64.60
2019-04-16T17:25:48.603Z,66.50
2019-04-16T17:28:18.218Z,63.50
2019-04-16T17:30:47.833Z,63.10
2019-04-16T17:33:17.538Z,64.30
2019-04-16T17:35:47.541Z,64.30
2019-04-16T17:38:17.187Z,63.50
2019-04-16T17:40:58.076Z,64.40
2019-04-16T17:43:37.941Z,64.00
2019-04-16T17:46:24.966Z,62.40
2019-04-16T17:49:07.729Z,63.30
2019-04-16T17:51:56.212Z,63.50
2019-04-16T17:54:32.532Z,63.70
2019-04-16T17:57:33.344Z,64.60
2019-04-16T18:00:28.707Z,65.70
2019-04-16T18:03:25.051Z,65.50
2019-04-16T18:05:59.512Z,66.90
2019-04-16T18:08:50.881Z,70.30
2019-04-16T18:11:27.120Z,72.20
2019-04-16T18:14:06.687Z,74.30
2019-04-16T18:16:46.525Z,76.20
2019-04-16T18:19:36.477Z,77.30
2019-04-16T18:22:28.184Z,78.40
2019-04-16T18:25:31.944Z,78.30
2019-04-16T18:28:06.780Z,81.40
2019-04-16T18:30:42.015Z,83.40
2019-04-16T18:33:29.218Z,84.50
2019-04-16T18:36:23.770Z,86.20
2019-04-16T18:39:09.164Z,88.40
2019-04-16T18:41:48.820Z,91.50
2019-04-16T18:44:37.498Z,93.50
2019-04-16T18:47:35.120Z,94.30
2019-04-16T18:50:08.321Z,95.40
2019-04-16T18:52:38.249Z,98.10
2019-04-16T18:55:08.774Z,99.00
2019-04-16T18:57:39.236Z,99.90
2019-04-16T19:00:28.758Z,99.90
2019-04-16T19:02:58.746Z,99.90
2019-04-16T19:05:28.353Z,99.90
2019-04-16T19:08:00.195Z,99.90
2019-04-16T19:10:29.642Z,99.90
2019-04-16T19:12:59.591Z,99.90
2019-04-16T19:15:29.310Z,99.90
2019-04-16T19:17:58.925Z,99.90
2019-04-16T19:20:28.531Z,99.90
2019-04-16T19:22:58.606Z,99.90
2019-04-16T19:25:28.311Z,99.90
2019-04-16T19:27:58.083Z,99.90
2019-04-16T19:30:28.073Z,99.90
2019-04-16T19:33:01.085Z,99.90
2019-04-16T19:35:29.191Z,99.90
2019-04-16T19:38:02.286Z,99.90
2019-04-16T19:40:30.729Z,99.90
2019-04-16T19:43:02.663Z,99.90
2019-04-16T19:45:32.060Z,99.90
2019-04-16T19:48:02.154Z,99.90
2019-04-16T19:50:36.041Z,99.90
2019-04-16T19:53:03.672Z,99.90
2019-04-16T19:55:34.018Z,99.90
2019-04-16T19:58:03.683Z,99.90
2019-04-16T20:00:33.327Z,99.90
2019-04-16T20:03:02.835Z,99.90
2019-04-16T20:05:32.436Z,99.90
2019-04-16T20:08:02.460Z,99.90
2019-04-16T20:10:32.618Z,99.90
2019-04-16T20:13:02.227Z,99.90
2019-04-16T20:15:31.956Z,99.90
2019-04-16T20:18:01.564Z,99.90
2019-04-16T20:20:31.228Z,99.90
2019-04-16T20:23:00.838Z,99.90
2019-04-16T20:25:31.122Z,99.90
2019-04-16T20:28:01.016Z,99.90
2019-04-16T20:30:31.372Z,99.90
2019-04-16T20:33:00.981Z,99.90
2019-04-16T20:35:30.570Z,99.90
2019-04-16T20:38:00.240Z,99.90
2019-04-16T20:40:30.119Z,99.90
2019-04-16T20:43:00.054Z,99.90
2019-04-16T20:45:30.659Z,99.90
2019-04-16T20:48:00.212Z,99.90
2019-04-16T20:50:30.088Z,99.90
2019-04-16T20:53:00.104Z,99.90
2019-04-16T20:55:29.752Z,99.90
2019-04-16T20:58:00.436Z,99.90
2019-04-16T21:00:32.901Z,99.90
2019-04-16T21:03:03.627Z,99.90
2019-04-16T21:05:35.768Z,99.90
2019-04-16T21:08:05.033Z,99.90
2019-04-16T21:10:35.772Z,99.90
2019-04-16T21:13:06.793Z,99.90
2019-04-16T21:15:36.523Z,99.60
2019-04-16T21:18:11.008Z,99.30
2019-04-16T21:20:37.347Z,99.90
2019-04-16T21:23:07.169Z,99.90
2019-04-16T21:25:37.557Z,99.90
2019-04-16T21:28:21.845Z,99.90
2019-04-16T21:30:55.120Z,99.90
2019-04-16T21:33:43.705Z,99.90
2019-04-16T21:36:21.605Z,99.90
2019-04-16T21:39:07.291Z,99.90
2019-04-16T21:41:36.937Z,99.90
2019-04-16T21:44:12.156Z,99.90
2019-04-16T21:46:39.039Z,99.90
2019-04-16T21:49:09.029Z,99.90
2019-04-16T21:51:58.046Z,99.90
2019-04-16T21:54:30.493Z,99.90
2019-04-16T21:56:59.261Z,99.90
2019-04-16T21:59:28.938Z,99.90
2019-04-16T22:01:59.229Z,99.90
2019-04-16T22:04:28.828Z,99.90
2019-04-16T22:06:58.480Z,99.90
2019-04-16T22:09:28.064Z,99.90
2019-04-16T22:11:57.856Z,99.90
2019-04-16T22:14:28.178Z,99.90
2019-04-16T22:16:59.906Z,99.90
2019-04-16T22:19:29.169Z,99.90
2019-04-16T22:21:58.690Z,99.90
2019-04-16T22:24:28.277Z,99.90
2019-04-16T22:26:57.952Z,99.90
2019-04-16T22:29:28.312Z,99.90
2019-04-16T22:31:58.269Z,99.90
2019-04-16T22:34:28.226Z,99.90
2019-04-16T22:36:58.077Z,99.90
2019-04-16T22:39:50.773Z,99.90
2019-04-16T22:42:36.821Z,99.90
2019-04-16T22:45:31.772Z,99.90
2019-04-16T22:48:01.584Z,99.90
2019-04-16T22:50:34.649Z,99.90
2019-04-16T22:53:02.915Z,99.90
2019-04-16T22:55:32.991Z,99.90
2019-04-16T22:58:04.680Z,99.90
2019-04-16T23:00:45.218Z,99.90
2019-04-16T23:03:16.590Z,99.90
2019-04-16T23:05:46.357Z,99.90
2019-04-16T23:08:16.252Z,99.90
2019-04-16T23:10:46.274Z,99.90
2019-04-16T23:13:15.855Z,99.90
2019-04-16T23:15:45.458Z,99.90
2019-04-16T23:18:17.466Z,99.90
2019-04-16T23:20:46.555Z,99.90
2019-04-16T23:23:19.003Z,99.90
2019-04-16T23:25:48.067Z,99.90
2019-04-16T23:28:18.044Z,99.90
2019-04-16T23:30:51.221Z,99.90
2019-04-16T23:33:19.893Z,99.90
2019-04-16T23:35:49.862Z,99.90
2019-04-16T23:38:19.861Z,99.90
2019-04-16T23:40:49.827Z,99.90
2019-04-16T23:43:44.537Z,99.90
2019-04-16T23:46:49.113Z,99.90
2019-04-16T23:49:43.876Z,99.90
2019-04-16T23:52:25.936Z,99.90
2019-04-16T23:55:05.532Z,99.90
2019-04-16T23:57:56.775Z,99.90
